sensor_id;sensor_type;location;lat;lon;timestamp;P1;durP1;ratioP1;P2;durP2;ratioP2
52878;SDS011;38747;53.140;6.498;2023-02-05T00:00:32;12.45;;;6.20;;
52878;SDS011;38747;53.140;6.498;2023-02-05T00:02:57;12.27;;;6.10;;
52878;SDS011;38747;53.140;6.498;2023-02-05T00:05:23;15.33;;;6.50;;
52878;SDS011;38747;53.140;6.498;2023-02-05T00:07:48;14.00;;;6.67;;
52878;SDS011;38747;53.140;6.498;2023-02-05T00:10:15;12.43;;;6.53;;
52878;SDS011;38747;53.140;6.498;2023-02-05T00:12:41;13.90;;;6.43;;
52878;SDS011;38747;53.140;6.498;2023-02-05T00:15:07;14.03;;;6.37;;
52878;SDS011;38747;53.140;6.498;2023-02-05T00:17:33;11.63;;;6.10;;
52878;SDS011;38747;53.140;6.498;2023-02-05T00:20:00;12.35;;;6.20;;
52878;SDS011;38747;53.140;6.498;2023-02-05T00:22:26;15.35;;;6.90;;
52878;SDS011;38747;53.140;6.498;2023-02-05T00:24:51;16.57;;;6.30;;
52878;SDS011;38747;53.140;6.498;2023-02-05T00:27:17;13.73;;;6.70;;
52878;SDS011;38747;53.140;6.498;2023-02-05T00:29:42;15.20;;;6.32;;
52878;SDS011;38747;53.140;6.498;2023-02-05T00:32:08;13.70;;;6.93;;
52878;SDS011;38747;53.140;6.498;2023-02-05T00:34:34;15.50;;;6.70;;
52878;SDS011;38747;53.140;6.498;2023-02-05T00:37:00;12.87;;;6.33;;
52878;SDS011;38747;53.140;6.498;2023-02-05T00:39:25;14.63;;;6.60;;
52878;SDS011;38747;53.140;6.498;2023-02-05T00:41:51;14.57;;;6.57;;
52878;SDS011;38747;53.140;6.498;2023-02-05T00:44:16;15.68;;;6.88;;
52878;SDS011;38747;53.140;6.498;2023-02-05T00:46:42;19.97;;;7.37;;
52878;SDS011;38747;53.140;6.498;2023-02-05T00:49:08;22.03;;;6.87;;
52878;SDS011;38747;53.140;6.498;2023-02-05T00:51:33;14.48;;;6.78;;
52878;SDS011;38747;53.140;6.498;2023-02-05T00:53:59;17.63;;;7.00;;
52878;SDS011;38747;53.140;6.498;2023-02-05T00:56:24;19.87;;;7.37;;
52878;SDS011;38747;53.140;6.498;2023-02-05T00:58:50;19.20;;;7.40;;
52878;SDS011;38747;53.140;6.498;2023-02-05T01:01:16;19.20;;;8.10;;
52878;SDS011;38747;53.140;6.498;2023-02-05T01:03:41;19.80;;;7.55;;
52878;SDS011;38747;53.140;6.498;2023-02-05T01:06:09;17.05;;;7.35;;
52878;SDS011;38747;53.140;6.498;2023-02-05T01:08:34;17.57;;;7.60;;
52878;SDS011;38747;53.140;6.498;2023-02-05T01:11:00;16.73;;;7.50;;
52878;SDS011;38747;53.140;6.498;2023-02-05T01:13:30;15.23;;;7.00;;
52878;SDS011;38747;53.140;6.498;2023-02-05T01:15:55;19.50;;;7.60;;
52878;SDS011;38747;53.140;6.498;2023-02-05T01:18:21;17.90;;;7.47;;
52878;SDS011;38747;53.140;6.498;2023-02-05T01:20:47;22.03;;;8.37;;
52878;SDS011;38747;53.140;6.498;2023-02-05T01:23:12;22.77;;;7.40;;
52878;SDS011;38747;53.140;6.498;2023-02-05T01:25:38;27.60;;;7.73;;
52878;SDS011;38747;53.140;6.498;2023-02-05T01:28:03;17.80;;;7.57;;
52878;SDS011;38747;53.140;6.498;2023-02-05T01:30:30;19.08;;;8.07;;
52878;SDS011;38747;53.140;6.498;2023-02-05T01:32:56;18.80;;;7.77;;
52878;SDS011;38747;53.140;6.498;2023-02-05T01:35:22;25.33;;;8.43;;
52878;SDS011;38747;53.140;6.498;2023-02-05T01:37:47;19.15;;;7.85;;
52878;SDS011;38747;53.140;6.498;2023-02-05T01:40:14;22.37;;;8.87;;
52878;SDS011;38747;53.140;6.498;2023-02-05T01:42:40;21.45;;;8.43;;
52878;SDS011;38747;53.140;6.498;2023-02-05T01:47:54;20.73;;;8.23;;
52878;SDS011;38747;53.140;6.498;2023-02-05T01:50:21;21.48;;;8.32;;
52878;SDS011;38747;53.140;6.498;2023-02-05T01:52:49;18.83;;;8.73;;
52878;SDS011;38747;53.140;6.498;2023-02-05T01:55:15;24.05;;;9.02;;
52878;SDS011;38747;53.140;6.498;2023-02-05T01:57:41;22.58;;;8.73;;
52878;SDS011;38747;53.140;6.498;2023-02-05T02:00:07;23.20;;;8.60;;
52878;SDS011;38747;53.140;6.498;2023-02-05T02:02:34;24.77;;;9.63;;
52878;SDS011;38747;53.140;6.498;2023-02-05T02:05:02;20.77;;;9.05;;
52878;SDS011;38747;53.140;6.498;2023-02-05T02:07:35;23.17;;;9.00;;
52878;SDS011;38747;53.140;6.498;2023-02-05T02:10:00;21.70;;;8.83;;
52878;SDS011;38747;53.140;6.498;2023-02-05T02:12:29;21.67;;;8.63;;
52878;SDS011;38747;53.140;6.498;2023-02-05T02:14:59;23.65;;;9.98;;
52878;SDS011;38747;53.140;6.498;2023-02-05T02:17:28;26.17;;;9.07;;
52878;SDS011;38747;53.140;6.498;2023-02-05T02:20:08;23.73;;;9.50;;
52878;SDS011;38747;53.140;6.498;2023-02-05T02:27:49;27.13;;;9.30;;
52878;SDS011;38747;53.140;6.498;2023-02-05T02:33:35;24.08;;;9.77;;
52878;SDS011;38747;53.140;6.498;2023-02-05T02:36:12;27.27;;;9.63;;
52878;SDS011;38747;53.140;6.498;2023-02-05T02:38:55;22.17;;;9.70;;
52878;SDS011;38747;53.140;6.498;2023-02-05T02:43:55;27.77;;;10.50;;
52878;SDS011;38747;53.140;6.498;2023-02-05T02:47:24;26.92;;;9.70;;
52878;SDS011;38747;53.140;6.498;2023-02-05T02:49:29;23.08;;;9.73;;
52878;SDS011;38747;53.140;6.498;2023-02-05T02:52:01;30.63;;;10.27;;
52878;SDS011;38747;53.140;6.498;2023-02-05T02:54:29;24.20;;;9.73;;
52878;SDS011;38747;53.140;6.498;2023-02-05T02:56:57;29.50;;;10.45;;
52878;SDS011;38747;53.140;6.498;2023-02-05T02:59:25;29.27;;;10.48;;
52878;SDS011;38747;53.140;6.498;2023-02-05T03:01:56;31.45;;;10.70;;
52878;SDS011;38747;53.140;6.498;2023-02-05T03:04:26;29.48;;;10.57;;
52878;SDS011;38747;53.140;6.498;2023-02-05T03:07:43;29.33;;;10.27;;
52878;SDS011;38747;53.140;6.498;2023-02-05T03:09:54;27.42;;;10.32;;
52878;SDS011;38747;53.140;6.498;2023-02-05T03:12:26;33.28;;;10.90;;
52878;SDS011;38747;53.140;6.498;2023-02-05T03:14:52;27.73;;;10.63;;
52878;SDS011;38747;53.140;6.498;2023-02-05T03:17:18;30.88;;;10.45;;
52878;SDS011;38747;53.140;6.498;2023-02-05T03:19:45;34.28;;;11.73;;
52878;SDS011;38747;53.140;6.498;2023-02-05T03:22:15;41.53;;;11.98;;
52878;SDS011;38747;53.140;6.498;2023-02-05T03:24:40;37.17;;;11.07;;
52878;SDS011;38747;53.140;6.498;2023-02-05T03:27:07;41.60;;;11.75;;
52878;SDS011;38747;53.140;6.498;2023-02-05T03:29:34;39.20;;;11.55;;
52878;SDS011;38747;53.140;6.498;2023-02-05T03:41:09;39.45;;;12.38;;
52878;SDS011;38747;53.140;6.498;2023-02-05T03:44:19;44.67;;;12.90;;
52878;SDS011;38747;53.140;6.498;2023-02-05T03:46:47;40.20;;;12.70;;
52878;SDS011;38747;53.140;6.498;2023-02-05T03:49:23;48.70;;;13.32;;
52878;SDS011;38747;53.140;6.498;2023-02-05T03:52:17;47.85;;;13.23;;
52878;SDS011;38747;53.140;6.498;2023-02-05T03:57:34;51.08;;;13.60;;
52878;SDS011;38747;53.140;6.498;2023-02-05T04:00:26;58.93;;;14.40;;
52878;SDS011;38747;53.140;6.498;2023-02-05T04:02:52;50.90;;;13.07;;
52878;SDS011;38747;53.140;6.498;2023-02-05T04:05:18;51.17;;;13.82;;
52878;SDS011;38747;53.140;6.498;2023-02-05T04:07:47;49.92;;;14.13;;
52878;SDS011;38747;53.140;6.498;2023-02-05T04:10:13;48.57;;;13.43;;
52878;SDS011;38747;53.140;6.498;2023-02-05T04:12:39;39.55;;;13.02;;
52878;SDS011;38747;53.140;6.498;2023-02-05T04:15:04;49.87;;;13.17;;
52878;SDS011;38747;53.140;6.498;2023-02-05T04:17:33;49.45;;;13.60;;
52878;SDS011;38747;53.140;6.498;2023-02-05T04:19:58;47.10;;;13.73;;
52878;SDS011;38747;53.140;6.498;2023-02-05T04:22:24;63.95;;;14.55;;
52878;SDS011;38747;53.140;6.498;2023-02-05T04:24:50;59.67;;;14.53;;
52878;SDS011;38747;53.140;6.498;2023-02-05T04:27:15;52.28;;;13.50;;
52878;SDS011;38747;53.140;6.498;2023-02-05T04:29:41;50.50;;;14.30;;
52878;SDS011;38747;53.140;6.498;2023-02-05T04:32:07;49.33;;;14.03;;
52878;SDS011;38747;53.140;6.498;2023-02-05T04:34:32;50.05;;;13.15;;
52878;SDS011;38747;53.140;6.498;2023-02-05T04:36:58;52.47;;;13.77;;
52878;SDS011;38747;53.140;6.498;2023-02-05T04:39:24;44.38;;;13.75;;
52878;SDS011;38747;53.140;6.498;2023-02-05T04:41:49;49.53;;;13.47;;
52878;SDS011;38747;53.140;6.498;2023-02-05T04:44:15;52.70;;;14.10;;
52878;SDS011;38747;53.140;6.498;2023-02-05T04:46:40;42.53;;;13.13;;
52878;SDS011;38747;53.140;6.498;2023-02-05T04:49:06;44.60;;;12.83;;
52878;SDS011;38747;53.140;6.498;2023-02-05T04:51:32;51.85;;;13.18;;
52878;SDS011;38747;53.140;6.498;2023-02-05T04:53:57;47.83;;;12.20;;
52878;SDS011;38747;53.140;6.498;2023-02-05T04:56:23;48.88;;;11.75;;
52878;SDS011;38747;53.140;6.498;2023-02-05T04:58:48;43.63;;;11.87;;
52878;SDS011;38747;53.140;6.498;2023-02-05T05:01:15;43.83;;;12.37;;
52878;SDS011;38747;53.140;6.498;2023-02-05T05:03:42;39.70;;;10.95;;
52878;SDS011;38747;53.140;6.498;2023-02-05T05:06:09;34.97;;;10.50;;
52878;SDS011;38747;53.140;6.498;2023-02-05T05:08:35;39.50;;;9.90;;
52878;SDS011;38747;53.140;6.498;2023-02-05T05:11:11;35.83;;;10.43;;
52878;SDS011;38747;53.140;6.498;2023-02-05T05:13:38;30.87;;;9.67;;
52878;SDS011;38747;53.140;6.498;2023-02-05T05:16:05;36.63;;;10.02;;
52878;SDS011;38747;53.140;6.498;2023-02-05T05:18:32;31.10;;;9.73;;
52878;SDS011;38747;53.140;6.498;2023-02-05T05:20:58;39.13;;;9.32;;
52878;SDS011;38747;53.140;6.498;2023-02-05T05:23:24;25.93;;;8.40;;
52878;SDS011;38747;53.140;6.498;2023-02-05T05:25:50;19.57;;;6.73;;
52878;SDS011;38747;53.140;6.498;2023-02-05T05:28:16;20.57;;;6.07;;
52878;SDS011;38747;53.140;6.498;2023-02-05T05:30:42;18.43;;;5.97;;
52878;SDS011;38747;53.140;6.498;2023-02-05T05:33:09;18.58;;;5.63;;
52878;SDS011;38747;53.140;6.498;2023-02-05T05:35:35;10.48;;;3.53;;
52878;SDS011;38747;53.140;6.498;2023-02-05T05:38:01;8.10;;;2.60;;
52878;SDS011;38747;53.140;6.498;2023-02-05T05:40:27;10.10;;;3.53;;
52878;SDS011;38747;53.140;6.498;2023-02-05T05:43:13;10.43;;;2.42;;
52878;SDS011;38747;53.140;6.498;2023-02-05T05:45:59;6.13;;;1.27;;
52878;SDS011;38747;53.140;6.498;2023-02-05T05:48:25;8.43;;;1.40;;
52878;SDS011;38747;53.140;6.498;2023-02-05T05:50:51;9.13;;;1.10;;
52878;SDS011;38747;53.140;6.498;2023-02-05T05:53:17;6.13;;;1.23;;
52878;SDS011;38747;53.140;6.498;2023-02-05T05:55:43;11.07;;;1.83;;
52878;SDS011;38747;53.140;6.498;2023-02-05T05:58:11;12.45;;;1.52;;
52878;SDS011;38747;53.140;6.498;2023-02-05T06:00:38;14.13;;;2.13;;
52878;SDS011;38747;53.140;6.498;2023-02-05T06:03:04;12.25;;;1.23;;
52878;SDS011;38747;53.140;6.498;2023-02-05T06:05:30;12.77;;;1.27;;
52878;SDS011;38747;53.140;6.498;2023-02-05T06:07:57;5.88;;;1.67;;
52878;SDS011;38747;53.140;6.498;2023-02-05T06:10:22;6.13;;;0.70;;
52878;SDS011;38747;53.140;6.498;2023-02-05T06:12:48;10.02;;;0.98;;
52878;SDS011;38747;53.140;6.498;2023-02-05T06:15:15;10.45;;;1.02;;
52878;SDS011;38747;53.140;6.498;2023-02-05T06:17:41;9.87;;;0.87;;
52878;SDS011;38747;53.140;6.498;2023-02-05T06:20:06;6.55;;;0.55;;
52878;SDS011;38747;53.140;6.498;2023-02-05T06:22:33;6.28;;;0.95;;
52878;SDS011;38747;53.140;6.498;2023-02-05T06:24:59;5.03;;;0.77;;
52878;SDS011;38747;53.140;6.498;2023-02-05T06:27:26;9.27;;;1.07;;
52878;SDS011;38747;53.140;6.498;2023-02-05T06:29:52;11.27;;;1.10;;
52878;SDS011;38747;53.140;6.498;2023-02-05T06:32:17;8.43;;;0.80;;
52878;SDS011;38747;53.140;6.498;2023-02-05T06:34:43;13.63;;;1.75;;
52878;SDS011;38747;53.140;6.498;2023-02-05T06:37:09;6.38;;;0.90;;
52878;SDS011;38747;53.140;6.498;2023-02-05T06:39:35;8.13;;;1.00;;
52878;SDS011;38747;53.140;6.498;2023-02-05T06:42:01;11.32;;;1.10;;
52878;SDS011;38747;53.140;6.498;2023-02-05T06:44:27;7.63;;;0.87;;
52878;SDS011;38747;53.140;6.498;2023-02-05T06:46:52;5.78;;;1.02;;
52878;SDS011;38747;53.140;6.498;2023-02-05T06:49:18;6.10;;;0.87;;
52878;SDS011;38747;53.140;6.498;2023-02-05T06:51:44;12.90;;;1.10;;
52878;SDS011;38747;53.140;6.498;2023-02-05T06:54:09;6.93;;;0.93;;
52878;SDS011;38747;53.140;6.498;2023-02-05T06:56:35;11.18;;;1.13;;
52878;SDS011;38747;53.140;6.498;2023-02-05T06:59:01;9.73;;;0.70;;
52878;SDS011;38747;53.140;6.498;2023-02-05T07:01:26;12.82;;;1.20;;
52878;SDS011;38747;53.140;6.498;2023-02-05T07:03:52;7.50;;;1.03;;
52878;SDS011;38747;53.140;6.498;2023-02-05T07:06:20;8.02;;;1.15;;
52878;SDS011;38747;53.140;6.498;2023-02-05T07:08:48;13.10;;;0.90;;
52878;SDS011;38747;53.140;6.498;2023-02-05T07:11:14;9.07;;;0.98;;
52878;SDS011;38747;53.140;6.498;2023-02-05T07:13:40;7.70;;;0.87;;
52878;SDS011;38747;53.140;6.498;2023-02-05T07:16:06;8.65;;;1.08;;
52878;SDS011;38747;53.140;6.498;2023-02-05T07:18:32;11.90;;;1.03;;
52878;SDS011;38747;53.140;6.498;2023-02-05T07:20:59;8.40;;;0.90;;
52878;SDS011;38747;53.140;6.498;2023-02-05T07:23:28;6.93;;;0.90;;
52878;SDS011;38747;53.140;6.498;2023-02-05T07:25:53;10.60;;;1.10;;
52878;SDS011;38747;53.140;6.498;2023-02-05T07:28:21;9.35;;;1.00;;
52878;SDS011;38747;53.140;6.498;2023-02-05T07:30:47;10.52;;;1.67;;
52878;SDS011;38747;53.140;6.498;2023-02-05T07:33:13;11.67;;;1.50;;
52878;SDS011;38747;53.140;6.498;2023-02-05T07:35:40;7.85;;;1.33;;
52878;SDS011;38747;53.140;6.498;2023-02-05T07:38:05;5.82;;;1.00;;
52878;SDS011;38747;53.140;6.498;2023-02-05T07:40:31;7.07;;;1.50;;
52878;SDS011;38747;53.140;6.498;2023-02-05T07:42:57;17.38;;;1.75;;
52878;SDS011;38747;53.140;6.498;2023-02-05T07:45:22;10.40;;;1.20;;
52878;SDS011;38747;53.140;6.498;2023-02-05T07:47:48;14.57;;;1.60;;
52878;SDS011;38747;53.140;6.498;2023-02-05T07:50:15;13.80;;;1.90;;
52878;SDS011;38747;53.140;6.498;2023-02-05T07:52:41;10.90;;;2.13;;
52878;SDS011;38747;53.140;6.498;2023-02-05T07:55:07;14.90;;;1.42;;
52878;SDS011;38747;53.140;6.498;2023-02-05T07:57:33;12.73;;;1.25;;
52878;SDS011;38747;53.140;6.498;2023-02-05T07:59:58;15.60;;;2.40;;
52878;SDS011;38747;53.140;6.498;2023-02-05T08:02:24;9.15;;;1.08;;
52878;SDS011;38747;53.140;6.498;2023-02-05T08:04:50;10.53;;;1.30;;
52878;SDS011;38747;53.140;6.498;2023-02-05T08:07:16;10.38;;;1.08;;
52878;SDS011;38747;53.140;6.498;2023-02-05T08:09:41;12.10;;;1.53;;
52878;SDS011;38747;53.140;6.498;2023-02-05T08:12:07;16.92;;;1.20;;
52878;SDS011;38747;53.140;6.498;2023-02-05T08:14:33;13.47;;;1.20;;
52878;SDS011;38747;53.140;6.498;2023-02-05T08:17:00;11.23;;;1.10;;
52878;SDS011;38747;53.140;6.498;2023-02-05T08:19:25;11.48;;;1.27;;
52878;SDS011;38747;53.140;6.498;2023-02-05T08:21:51;7.60;;;1.17;;
52878;SDS011;38747;53.140;6.498;2023-02-05T08:24:17;6.55;;;1.33;;
52878;SDS011;38747;53.140;6.498;2023-02-05T08:26:43;7.93;;;1.20;;
52878;SDS011;38747;53.140;6.498;2023-02-05T08:29:09;9.10;;;1.20;;
52878;SDS011;38747;53.140;6.498;2023-02-05T08:31:35;10.93;;;1.42;;
52878;SDS011;38747;53.140;6.498;2023-02-05T08:34:02;13.82;;;1.65;;
52878;SDS011;38747;53.140;6.498;2023-02-05T08:36:28;6.72;;;1.23;;
52878;SDS011;38747;53.140;6.498;2023-02-05T08:38:54;8.63;;;1.20;;
52878;SDS011;38747;53.140;6.498;2023-02-05T08:41:20;8.33;;;1.37;;
52878;SDS011;38747;53.140;6.498;2023-02-05T08:43:47;14.10;;;1.60;;
52878;SDS011;38747;53.140;6.498;2023-02-05T08:46:14;10.65;;;1.65;;
52878;SDS011;38747;53.140;6.498;2023-02-05T08:48:43;8.60;;;1.40;;
52878;SDS011;38747;53.140;6.498;2023-02-05T08:51:09;17.92;;;2.35;;
52878;SDS011;38747;53.140;6.498;2023-02-05T08:53:35;14.13;;;2.33;;
52878;SDS011;38747;53.140;6.498;2023-02-05T08:56:02;15.33;;;2.20;;
52878;SDS011;38747;53.140;6.498;2023-02-05T08:58:30;11.57;;;1.73;;
52878;SDS011;38747;53.140;6.498;2023-02-05T09:01:00;12.93;;;1.40;;
52878;SDS011;38747;53.140;6.498;2023-02-05T09:03:27;15.65;;;1.75;;
52878;SDS011;38747;53.140;6.498;2023-02-05T09:05:53;13.23;;;1.57;;
52878;SDS011;38747;53.140;6.498;2023-02-05T09:08:18;17.08;;;1.60;;
52878;SDS011;38747;53.140;6.498;2023-02-05T09:10:44;13.73;;;1.93;;
52878;SDS011;38747;53.140;6.498;2023-02-05T09:13:09;11.65;;;2.22;;
52878;SDS011;38747;53.140;6.498;2023-02-05T09:15:39;22.00;;;1.60;;
52878;SDS011;38747;53.140;6.498;2023-02-05T09:18:06;15.65;;;1.60;;
52878;SDS011;38747;53.140;6.498;2023-02-05T09:20:32;20.20;;;2.17;;
52878;SDS011;38747;53.140;6.498;2023-02-05T09:22:57;12.85;;;1.55;;
52878;SDS011;38747;53.140;6.498;2023-02-05T09:25:23;17.17;;;1.97;;
52878;SDS011;38747;53.140;6.498;2023-02-05T09:27:49;12.27;;;1.70;;
52878;SDS011;38747;53.140;6.498;2023-02-05T09:30:14;13.80;;;1.90;;
52878;SDS011;38747;53.140;6.498;2023-02-05T09:32:40;22.60;;;2.33;;
52878;SDS011;38747;53.140;6.498;2023-02-05T09:35:05;22.43;;;2.47;;
52878;SDS011;38747;53.140;6.498;2023-02-05T09:37:31;11.75;;;1.40;;
52878;SDS011;38747;53.140;6.498;2023-02-05T09:39:57;12.20;;;1.73;;
52878;SDS011;38747;53.140;6.498;2023-02-05T09:47:41;17.10;;;1.70;;
52878;SDS011;38747;53.140;6.498;2023-02-05T09:50:16;16.30;;;1.60;;
52878;SDS011;38747;53.140;6.498;2023-02-05T09:52:49;15.52;;;1.98;;
52878;SDS011;38747;53.140;6.498;2023-02-05T09:55:22;12.30;;;2.30;;
52878;SDS011;38747;53.140;6.498;2023-02-05T09:57:52;13.37;;;2.10;;
52878;SDS011;38747;53.140;6.498;2023-02-05T10:00:27;13.73;;;1.50;;
52878;SDS011;38747;53.140;6.498;2023-02-05T10:03:00;17.63;;;2.17;;
52878;SDS011;38747;53.140;6.498;2023-02-05T10:05:37;21.38;;;2.00;;
52878;SDS011;38747;53.140;6.498;2023-02-05T10:10:57;10.10;;;1.20;;
52878;SDS011;38747;53.140;6.498;2023-02-05T10:13:26;26.40;;;2.85;;
52878;SDS011;38747;53.140;6.498;2023-02-05T10:18:41;11.43;;;1.50;;
52878;SDS011;38747;53.140;6.498;2023-02-05T10:21:28;16.73;;;2.30;;
52878;SDS011;38747;53.140;6.498;2023-02-05T10:27:15;16.50;;;1.70;;
52878;SDS011;38747;53.140;6.498;2023-02-05T10:35:11;7.88;;;0.93;;
52878;SDS011;38747;53.140;6.498;2023-02-05T10:37:51;11.07;;;1.37;;
52878;SDS011;38747;53.140;6.498;2023-02-05T10:40:28;11.57;;;1.00;;
52878;SDS011;38747;53.140;6.498;2023-02-05T10:45:54;9.35;;;1.13;;
52878;SDS011;38747;53.140;6.498;2023-02-05T10:50:58;8.37;;;1.47;;
52878;SDS011;38747;53.140;6.498;2023-02-05T10:53:25;14.18;;;1.73;;
52878;SDS011;38747;53.140;6.498;2023-02-05T10:55:51;13.02;;;1.50;;
52878;SDS011;38747;53.140;6.498;2023-02-05T11:01:05;11.60;;;1.38;;
52878;SDS011;38747;53.140;6.498;2023-02-05T11:03:35;16.43;;;1.83;;
52878;SDS011;38747;53.140;6.498;2023-02-05T11:06:02;14.88;;;1.98;;
52878;SDS011;38747;53.140;6.498;2023-02-05T11:08:35;14.18;;;1.73;;
52878;SDS011;38747;53.140;6.498;2023-02-05T11:11:02;12.23;;;1.40;;
52878;SDS011;38747;53.140;6.498;2023-02-05T11:13:28;19.05;;;3.70;;
52878;SDS011;38747;53.140;6.498;2023-02-05T11:15:59;11.43;;;1.40;;
52878;SDS011;38747;53.140;6.498;2023-02-05T11:18:34;15.65;;;1.92;;
52878;SDS011;38747;53.140;6.498;2023-02-05T11:21:04;19.85;;;2.25;;
52878;SDS011;38747;53.140;6.498;2023-02-05T11:23:32;19.50;;;2.17;;
52878;SDS011;38747;53.140;6.498;2023-02-05T11:26:08;16.05;;;2.30;;
52878;SDS011;38747;53.140;6.498;2023-02-05T11:28:41;11.87;;;1.30;;
52878;SDS011;38747;53.140;6.498;2023-02-05T11:31:26;16.65;;;2.10;;
52878;SDS011;38747;53.140;6.498;2023-02-05T11:34:09;13.20;;;1.38;;
52878;SDS011;38747;53.140;6.498;2023-02-05T11:36:46;14.40;;;1.73;;
52878;SDS011;38747;53.140;6.498;2023-02-05T11:39:37;14.05;;;2.00;;
52878;SDS011;38747;53.140;6.498;2023-02-05T11:42:06;12.27;;;1.67;;
52878;SDS011;38747;53.140;6.498;2023-02-05T11:44:45;14.82;;;1.88;;
52878;SDS011;38747;53.140;6.498;2023-02-05T11:50:01;12.10;;;2.37;;
52878;SDS011;38747;53.140;6.498;2023-02-05T11:52:30;16.38;;;1.92;;
52878;SDS011;38747;53.140;6.498;2023-02-05T11:55:00;18.52;;;2.20;;
52878;SDS011;38747;53.140;6.498;2023-02-05T12:00:18;18.15;;;1.98;;
52878;SDS011;38747;53.140;6.498;2023-02-05T12:02:46;18.70;;;2.83;;
52878;SDS011;38747;53.140;6.498;2023-02-05T12:05:23;18.45;;;2.03;;
52878;SDS011;38747;53.140;6.498;2023-02-05T12:23:00;19.33;;;2.63;;
52878;SDS011;38747;53.140;6.498;2023-02-05T12:28:38;20.52;;;2.35;;
52878;SDS011;38747;53.140;6.498;2023-02-05T12:34:23;12.50;;;1.80;;
52878;SDS011;38747;53.140;6.498;2023-02-05T12:41:29;18.42;;;2.63;;
52878;SDS011;38747;53.140;6.498;2023-02-05T12:44:12;17.00;;;2.60;;
52878;SDS011;38747;53.140;6.498;2023-02-05T13:00:22;25.60;;;3.15;;
52878;SDS011;38747;53.140;6.498;2023-02-05T13:02:54;15.27;;;2.47;;
52878;SDS011;38747;53.140;6.498;2023-02-05T13:05:45;16.60;;;2.83;;
52878;SDS011;38747;53.140;6.498;2023-02-05T13:08:36;14.82;;;2.55;;
52878;SDS011;38747;53.140;6.498;2023-02-05T13:11:09;18.50;;;2.28;;
52878;SDS011;38747;53.140;6.498;2023-02-05T13:16:43;17.60;;;2.25;;
52878;SDS011;38747;53.140;6.498;2023-02-05T13:22:00;19.77;;;2.22;;
52878;SDS011;38747;53.140;6.498;2023-02-05T13:24:55;21.42;;;2.38;;
52878;SDS011;38747;53.140;6.498;2023-02-05T13:27:44;14.80;;;2.20;;
52878;SDS011;38747;53.140;6.498;2023-02-05T13:30:35;15.30;;;2.42;;
52878;SDS011;38747;53.140;6.498;2023-02-05T13:33:05;15.23;;;2.30;;
52878;SDS011;38747;53.140;6.498;2023-02-05T13:35:33;20.27;;;2.90;;
52878;SDS011;38747;53.140;6.498;2023-02-05T13:47:14;19.27;;;2.53;;
52878;SDS011;38747;53.140;6.498;2023-02-05T13:53:00;20.25;;;2.13;;
52878;SDS011;38747;53.140;6.498;2023-02-05T13:58:43;19.63;;;2.65;;
52878;SDS011;38747;53.140;6.498;2023-02-05T14:01:16;18.97;;;2.13;;
52878;SDS011;38747;53.140;6.498;2023-02-05T14:03:54;22.27;;;2.60;;
52878;SDS011;38747;53.140;6.498;2023-02-05T14:07:00;15.25;;;2.33;;
52878;SDS011;38747;53.140;6.498;2023-02-05T14:12:09;14.32;;;2.35;;
52878;SDS011;38747;53.140;6.498;2023-02-05T14:14:37;18.60;;;2.70;;
52878;SDS011;38747;53.140;6.498;2023-02-05T14:19:52;19.73;;;2.40;;
52878;SDS011;38747;53.140;6.498;2023-02-05T14:22:36;19.65;;;2.90;;
52878;SDS011;38747;53.140;6.498;2023-02-05T14:28:00;17.50;;;2.50;;
52878;SDS011;38747;53.140;6.498;2023-02-05T14:32:57;24.80;;;3.42;;
52878;SDS011;38747;53.140;6.498;2023-02-05T14:37:58;27.00;;;2.38;;
52878;SDS011;38747;53.140;6.498;2023-02-05T14:40:45;28.40;;;3.00;;
52878;SDS011;38747;53.140;6.498;2023-02-05T14:43:30;25.35;;;3.33;;
52878;SDS011;38747;53.140;6.498;2023-02-05T14:45:59;20.83;;;2.83;;
52878;SDS011;38747;53.140;6.498;2023-02-05T14:48:30;18.38;;;2.28;;
52878;SDS011;38747;53.140;6.498;2023-02-05T14:50:59;22.50;;;2.80;;
52878;SDS011;38747;53.140;6.498;2023-02-05T14:53:30;27.00;;;2.77;;
52878;SDS011;38747;53.140;6.498;2023-02-05T14:55:58;20.63;;;2.28;;
52878;SDS011;38747;53.140;6.498;2023-02-05T14:58:29;21.58;;;3.05;;
52878;SDS011;38747;53.140;6.498;2023-02-05T15:01:28;19.67;;;2.67;;
52878;SDS011;38747;53.140;6.498;2023-02-05T15:03:58;23.38;;;2.65;;
52878;SDS011;38747;53.140;6.498;2023-02-05T15:06:27;21.77;;;3.23;;
52878;SDS011;38747;53.140;6.498;2023-02-05T15:09:05;20.13;;;2.53;;
52878;SDS011;38747;53.140;6.498;2023-02-05T15:11:45;29.25;;;4.18;;
52878;SDS011;38747;53.140;6.498;2023-02-05T15:19:30;21.93;;;3.37;;
52878;SDS011;38747;53.140;6.498;2023-02-05T15:22:01;25.75;;;2.67;;
52878;SDS011;38747;53.140;6.498;2023-02-05T15:24:29;24.35;;;2.72;;
52878;SDS011;38747;53.140;6.498;2023-02-05T15:27:02;20.05;;;2.28;;
52878;SDS011;38747;53.140;6.498;2023-02-05T15:29:41;24.30;;;3.13;;
52878;SDS011;38747;53.140;6.498;2023-02-05T15:34:54;26.38;;;2.88;;
52878;SDS011;38747;53.140;6.498;2023-02-05T15:37:32;28.98;;;3.22;;
52878;SDS011;38747;53.140;6.498;2023-02-05T15:40:25;28.50;;;3.22;;
52878;SDS011;38747;53.140;6.498;2023-02-05T15:42:58;24.70;;;3.42;;
52878;SDS011;38747;53.140;6.498;2023-02-05T15:45:39;24.80;;;2.93;;
52878;SDS011;38747;53.140;6.498;2023-02-05T15:50:35;29.43;;;3.37;;
52878;SDS011;38747;53.140;6.498;2023-02-05T15:53:02;21.23;;;2.65;;
52878;SDS011;38747;53.140;6.498;2023-02-05T15:55:31;31.25;;;3.28;;
52878;SDS011;38747;53.140;6.498;2023-02-05T15:57:59;18.83;;;2.90;;
52878;SDS011;38747;53.140;6.498;2023-02-05T16:00:29;24.98;;;2.83;;
52878;SDS011;38747;53.140;6.498;2023-02-05T16:02:58;13.87;;;1.90;;
52878;SDS011;38747;53.140;6.498;2023-02-05T16:05:27;30.70;;;3.60;;
52878;SDS011;38747;53.140;6.498;2023-02-05T16:07:54;21.13;;;2.45;;
52878;SDS011;38747;53.140;6.498;2023-02-05T16:10:23;12.00;;;1.90;;
52878;SDS011;38747;53.140;6.498;2023-02-05T16:13:02;18.35;;;2.20;;
52878;SDS011;38747;53.140;6.498;2023-02-05T16:15:30;15.93;;;2.23;;
52878;SDS011;38747;53.140;6.498;2023-02-05T16:17:59;20.40;;;2.30;;
52878;SDS011;38747;53.140;6.498;2023-02-05T16:20:28;16.95;;;2.13;;
52878;SDS011;38747;53.140;6.498;2023-02-05T16:22:57;24.50;;;3.35;;
52878;SDS011;38747;53.140;6.498;2023-02-05T16:25:28;26.85;;;3.58;;
52878;SDS011;38747;53.140;6.498;2023-02-05T16:28:23;23.67;;;2.70;;
52878;SDS011;38747;53.140;6.498;2023-02-05T16:31:04;16.83;;;2.78;;
52878;SDS011;38747;53.140;6.498;2023-02-05T16:36:00;26.65;;;3.03;;
52878;SDS011;38747;53.140;6.498;2023-02-05T16:38:29;19.08;;;2.72;;
52878;SDS011;38747;53.140;6.498;2023-02-05T16:40:56;26.57;;;3.00;;
52878;SDS011;38747;53.140;6.498;2023-02-05T16:48:35;21.57;;;2.83;;
52878;SDS011;38747;53.140;6.498;2023-02-05T16:51:00;22.65;;;2.95;;
52878;SDS011;38747;53.140;6.498;2023-02-05T16:53:31;20.55;;;2.60;;
52878;SDS011;38747;53.140;6.498;2023-02-05T16:56:10;24.40;;;2.90;;
52878;SDS011;38747;53.140;6.498;2023-02-05T16:58:43;26.73;;;3.22;;
52878;SDS011;38747;53.140;6.498;2023-02-05T17:01:11;20.53;;;2.83;;
52878;SDS011;38747;53.140;6.498;2023-02-05T17:03:38;27.75;;;3.38;;
52878;SDS011;38747;53.140;6.498;2023-02-05T17:06:12;22.48;;;2.60;;
52878;SDS011;38747;53.140;6.498;2023-02-05T17:08:39;21.65;;;3.03;;
52878;SDS011;38747;53.140;6.498;2023-02-05T17:11:07;23.37;;;3.13;;
52878;SDS011;38747;53.140;6.498;2023-02-05T17:14:51;26.67;;;2.70;;
52878;SDS011;38747;53.140;6.498;2023-02-05T17:19:25;27.77;;;3.85;;
52878;SDS011;38747;53.140;6.498;2023-02-05T17:24:43;22.90;;;2.87;;